Time;durP1;ratioP1;P1;durP2;ratioP2;P2;SDS_P1;SDS_P2;PMS_P1;PMS_P2;Temp;Humidity;BMP_temperature;BMP_pressure;BME280_temperature;BME280_humidity;BME280_pressure;Samples;Min_cycle;Max_cycle;Signal;HPM_P1;HPM_P2
2022/04/04 00:00:13;;;;;;;5.07;3.50;;;2.20;99.90;;;;;;5032974;28;20026;-72
2022/04/04 00:02:38;;;;;;;8.20;3.50;;;2.30;99.90;;;;;;5032579;28;20030;-72
2022/04/04 00:05:05;;;;;;;5.23;3.93;;;2.10;99.90;;;;;;5017117;28;20096;-72
2022/04/04 00:07:31;;;;;;;4.83;3.43;;;2.20;99.90;;;;;;4995440;28;20018;-72
2022/04/04 00:09:56;;;;;;;5.03;3.50;;;2.00;99.90;;;;;;5013462;28;20022;-72
2022/04/04 00:12:22;;;;;;;3.83;2.90;;;2.10;99.90;;;;;;5013389;28;20025;-72
2022/04/04 00:14:48;;;;;;;7.67;3.37;;;2.10;99.90;;;;;;4995366;28;20052;-72
2022/04/04 00:17:14;;;;;;;6.93;3.40;;;2.10;99.90;;;;;;5013312;28;20040;-72
2022/04/04 00:19:40;;;;;;;4.50;3.30;;;;;;;;;;5025853;28;20033;-72
2022/04/04 00:22:06;;;;;;;6.83;4.40;;;;;;;;;;5033088;28;20028;-72
2022/04/04 00:24:32;;;;;;;7.47;4.37;;;2.00;99.90;;;;;;5032421;28;20038;-72
2022/04/04 00:26:58;;;;;;;5.60;4.00;;;;;;;;;;5032873;28;20025;-72
2022/04/04 00:29:25;;;;;;;4.53;3.67;;;;;;;;;;5032237;28;20404;-71
2022/04/04 00:31:51;;;;;;;7.03;4.17;;;;;;;;;;5032500;28;20041;-72
2022/04/04 00:34:17;;;;;;;5.67;3.77;;;1.60;99.90;;;;;;5032572;28;20041;-71
2022/04/04 00:36:43;;;;;;;7.63;4.43;;;1.90;99.90;;;;;;5015623;28;20475;-71
2022/04/04 00:39:10;;;;;;;8.07;4.47;;;2.10;99.90;;;;;;5012978;28;20105;-71
2022/04/04 00:41:36;;;;;;;7.23;4.40;;;2.00;99.90;;;;;;5012306;28;20045;-71
2022/04/04 00:44:02;;;;;;;4.80;3.60;;;;;;;;;;5012474;28;20034;-74
2022/04/04 00:46:28;;;;;;;6.23;4.47;;;;;;;;;;5012440;28;20034;-74
2022/04/04 00:48:55;;;;;;;10.77;5.03;;;;;;;;;;5019350;28;20037;-74
2022/04/04 00:51:21;;;;;;;5.40;3.93;;;;;;;;;;5032592;28;20030;-74
2022/04/04 00:53:47;;;;;;;6.30;4.10;;;;;;;;;;5014107;28;20030;-74
2022/04/04 00:56:13;;;;;;;6.93;4.37;;;1.90;99.90;;;;;;5032508;28;20063;-71
2022/04/04 00:58:39;;;;;;;7.07;5.07;;;2.00;99.90;;;;;;5032783;28;20114;-72
2022/04/04 01:01:05;;;;;;;7.70;5.60;;;;;;;;;;5014810;28;20478;-71
2022/04/04 01:03:31;;;;;;;8.23;5.70;;;;;;;;;;5030767;28;20530;-72
2022/04/04 01:05:58;;;;;;;8.10;5.10;;;1.80;99.90;;;;;;5032064;28;20037;-71
2022/04/04 01:08:24;;;;;;;9.83;5.03;;;1.90;99.90;;;;;;5031407;28;20017;-72
2022/04/04 01:10:50;;;;;;;8.83;5.47;;;1.40;99.90;;;;;;5032942;28;20048;-71
2022/04/04 01:13:17;;;;;;;7.70;5.50;;;1.80;99.90;;;;;;5033066;28;20089;-71
2022/04/04 01:15:43;;;;;;;9.80;6.00;;;;;;;;;;5013782;28;20041;-71
2022/04/04 01:18:09;;;;;;;7.60;5.77;;;1.70;99.90;;;;;;5031268;28;20056;-72
2022/04/04 01:20:38;;;;;;;6.13;4.47;;;1.50;99.90;;;;;;5011624;28;20403;-72
2022/04/04 01:23:07;;;;;;;8.43;5.03;;;2.00;99.90;;;;;;5011986;28;20046;-71
2022/04/04 01:25:37;;;;;;;9.97;5.57;;;2.00;99.90;;;;;;5011576;28;20056;-72
2022/04/04 01:28:04;;;;;;;10.63;6.10;;;1.80;99.90;;;;;;5011608;28;20054;-72
2022/04/04 01:30:31;;;;;;;7.90;4.83;;;;;;;;;;5011653;28;20116;-72
2022/04/04 01:32:57;;;;;;;6.40;5.30;;;2.50;99.90;;;;;;5011811;28;20422;-72
2022/04/04 01:35:23;;;;;;;8.10;4.73;;;;;;;;;;5014601;28;20060;-72
2022/04/04 01:37:48;;;;;;;9.23;6.10;;;2.10;99.90;;;;;;5031278;28;20080;-71
2022/04/04 01:40:15;;;;;;;10.77;6.00;;;2.00;99.90;;;;;;5031491;28;20030;-71
2022/04/04 01:42:41;;;;;;;6.23;4.77;;;2.10;99.90;;;;;;5030439;28;20014;-71
2022/04/04 01:45:08;;;;;;;8.27;5.73;;;2.30;99.90;;;;;;5017500;28;20022;-71
2022/04/04 01:47:35;;;;;;;9.40;5.63;;;2.00;99.90;;;;;;5011157;28;20113;-71
2022/04/04 01:50:01;;;;;;;9.10;5.73;;;;;;;;;;5011428;28;20045;-71
2022/04/04 01:52:27;;;;;;;9.17;6.00;;;;;;;;;;5011248;28;20045;-71
2022/04/04 01:54:53;;;;;;;12.30;5.83;;;2.30;99.90;;;;;;5021108;28;20474;-72
2022/04/04 01:57:18;;;;;;;8.77;5.97;;;2.30;99.90;;;;;;5030804;28;20541;-72
2022/04/04 01:59:44;;;;;;;8.63;5.60;;;2.10;99.90;;;;;;5030632;28;20108;-71
2022/04/04 02:02:10;;;;;;;7.77;6.17;;;2.40;99.90;;;;;;5031164;28;20062;-74
2022/04/04 02:04:36;;;;;;;8.70;6.67;;;;;;;;;;5030455;28;20041;-74
2022/04/04 02:07:02;;;;;;;8.80;7.07;;;2.40;99.90;;;;;;5031002;28;20033;-73
2022/04/04 02:09:28;;;;;;;7.77;6.33;;;2.30;99.90;;;;;;5024529;28;20041;-74
2022/04/04 02:11:54;;;;;;;8.33;6.97;;;;;;;;;;5010371;28;20029;-74
2022/04/04 02:14:20;;;;;;;10.97;6.90;;;2.30;99.90;;;;;;5010672;28;20072;-74
2022/04/04 02:16:45;;;;;;;7.67;6.33;;;;;;;;;;5009626;28;20104;-74
2022/04/04 02:19:11;;;;;;;6.53;5.87;;;;;;;;;;5010335;28;20034;-74
2022/04/04 02:21:38;;;;;;;9.67;6.80;;;;;;;;;;5008847;28;20088;-73
2022/04/04 02:24:04;;;;;;;7.53;6.37;;;2.40;99.90;;;;;;5010457;28;20069;-74
2022/04/04 02:26:30;;;;;;;11.47;6.60;;;;;;;;;;5009620;28;20034;-74
2022/04/04 02:28:56;;;;;;;10.90;7.27;;;;;;;;;;5010169;28;20029;-74
2022/04/04 02:31:22;;;;;;;9.17;7.23;;;;;;;;;;5011304;28;20037;-73
2022/04/04 02:33:48;;;;;;;9.20;7.70;;;;;;;;;;5010031;28;20033;-74
2022/04/04 02:36:14;;;;;;;8.87;7.47;;;2.60;99.90;;;;;;5010222;28;20419;-74
2022/04/04 02:38:39;;;;;;;9.87;8.57;;;2.40;99.90;;;;;;5009817;28;20037;-74
2022/04/04 02:41:05;;;;;;;10.10;8.93;;;;;;;;;;5009804;28;20101;-73
2022/04/04 02:43:32;;;;;;;10.90;7.90;;;2.50;99.90;;;;;;5029190;28;20044;-74
2022/04/04 02:45:57;;;;;;;11.77;8.73;;;2.70;99.90;;;;;;5030194;28;20024;-74
2022/04/04 02:48:23;;;;;;;12.73;9.40;;;;;;;;;;5029993;28;20430;-74
2022/04/04 02:50:49;;;;;;;10.87;9.13;;;2.60;99.90;;;;;;5030070;28;20017;-74
2022/04/04 02:53:15;;;;;;;12.00;9.43;;;2.70;99.90;;;;;;5030280;28;20091;-73
2022/04/04 02:58:25;;;;;;;;;;;2.80;99.90;;;;;;5030561;28;20387;-74
2022/04/04 03:00:51;;;;;;;10.53;9.37;;;2.70;99.90;;;;;;5017880;28;19906;-74
2022/04/04 03:03:17;;;;;;;13.40;8.60;;;2.60;99.90;;;;;;5010376;28;20037;-74
2022/04/04 03:05:43;;;;;;;11.53;9.77;;;2.50;99.90;;;;;;5009807;28;20029;-73
2022/04/04 03:08:10;;;;;;;14.00;10.20;;;;;;;;;;5010155;28;20032;-75
2022/04/04 03:10:36;;;;;;;10.90;9.43;;;;;;;;;;5013347;28;20033;-74
2022/04/04 03:13:04;;;;;;;10.97;8.80;;;2.70;99.90;;;;;;5030185;28;20026;-74
2022/04/04 03:15:32;;;;;;;14.30;10.37;;;2.50;99.90;;;;;;5029767;28;20032;-74
2022/04/04 03:17:57;;;;;;;15.93;9.70;;;2.70;99.90;;;;;;5016881;28;20113;-74
2022/04/04 03:20:25;;;;;;;13.80;10.30;;;2.80;99.90;;;;;;5009909;28;20109;-74
2022/04/04 03:22:54;;;;;;;12.33;10.27;;;2.70;99.90;;;;;;4992180;28;20044;-74
2022/04/04 03:25:21;;;;;;;15.20;10.07;;;2.80;99.90;;;;;;4992604;28;20466;-73
2022/04/04 03:27:47;;;;;;;10.90;8.77;;;2.90;99.90;;;;;;5010053;28;20096;-73
2022/04/04 03:30:18;;;;;;;10.87;9.57;;;3.00;99.90;;;;;;5014028;28;20053;-73
2022/04/04 03:32:45;;;;;;;11.27;9.73;;;2.90;99.90;;;;;;5024050;28;20037;-73
2022/04/04 03:35:13;;;;;;;11.57;9.63;;;;;;;;;;5013702;28;20057;-73
2022/04/04 03:37:39;;;;;;;10.90;9.40;;;;;;;;;;5013550;28;20033;-73
2022/04/04 03:40:06;;;;;;;14.53;10.00;;;;;;;;;;5014968;28;20037;-74
2022/04/04 03:42:33;;;;;;;14.83;9.93;;;;;;;;;;5014159;28;20065;-74
2022/04/04 03:44:58;;;;;;;11.17;8.23;;;3.00;99.90;;;;;;5013786;28;20038;-74
2022/04/04 03:47:24;;;;;;;14.63;8.87;;;2.60;99.90;;;;;;5013630;28;20044;-73
2022/04/04 03:49:50;;;;;;;13.20;9.70;;;;;;;;;;5013372;28;20037;-72
2022/04/04 03:52:16;;;;;;;14.40;9.13;;;;;;;;;;5013178;28;20471;-72
2022/04/04 03:54:42;;;;;;;11.03;8.37;;;3.00;99.90;;;;;;5025620;28;20033;-72
2022/04/04 03:57:07;;;;;;;13.57;8.83;;;2.80;99.90;;;;;;5033247;28;20036;-72
2022/04/04 03:59:33;;;;;;;11.20;8.43;;;;;;;;;;5033028;28;20060;-72
2022/04/04 04:01:59;;;;;;;12.37;8.90;;;3.00;99.90;;;;;;5033504;28;20395;-72
2022/04/04 04:04:25;;;;;;;12.80;9.37;;;;;;;;;;5032857;28;20376;-72
2022/04/04 04:06:51;;;;;;;13.63;9.60;;;3.30;99.90;;;;;;5032653;28;20041;-72
2022/04/04 04:09:17;;;;;;;11.77;8.57;;;2.80;99.90;;;;;;5015508;28;20033;-72
2022/04/04 04:11:42;;;;;;;9.77;8.00;;;3.10;99.90;;;;;;5032732;28;20063;-72
2022/04/04 04:14:08;;;;;;;10.70;8.17;;;;;;;;;;5033114;28;20386;-72
2022/04/04 04:16:34;;;;;;;11.47;9.27;;;3.20;99.90;;;;;;5018510;28;20100;-72
2022/04/04 04:19:00;;;;;;;9.33;8.47;;;;;;;;;;5013270;28;20068;-72
2022/04/04 04:21:26;;;;;;;8.97;7.73;;;3.10;99.90;;;;;;5012675;28;20773;-72
2022/04/04 04:23:52;;;;;;;11.93;8.67;;;;;;;;;;5012897;28;20096;-72
2022/04/04 04:26:17;;;;;;;13.53;10.23;;;3.10;99.90;;;;;;5013217;28;20022;-73
2022/04/04 04:28:47;;;;;;;12.57;9.17;;;3.20;99.90;;;;;;5012571;28;20368;-72
2022/04/04 04:31:14;;;;;;;10.50;7.90;;;3.30;99.90;;;;;;5022899;28;20112;-72
2022/04/04 04:33:40;;;;;;;10.87;8.47;;;3.20;99.90;;;;;;5031893;28;20024;-72
2022/04/04 04:36:07;;;;;;;13.77;8.37;;;;;;;;;;5031603;28;20050;-72
2022/04/04 04:38:34;;;;;;;12.37;8.07;;;;;;;;;;5032187;28;20021;-72
2022/04/04 04:41:00;;;;;;;10.57;9.03;;;3.20;99.90;;;;;;5032435;28;20114;-72
2022/04/04 04:43:26;;;;;;;11.00;8.07;;;;;;;;;;5031206;28;20075;-72
2022/04/04 04:45:52;;;;;;;11.00;8.70;;;;;;;;;;5024141;28;20048;-72
2022/04/04 04:48:18;;;;;;;10.53;8.03;;;3.30;99.90;;;;;;5012725;28;20022;-72
2022/04/04 04:50:44;;;;;;;12.07;8.53;;;3.50;99.90;;;;;;5011512;28;20112;-72
2022/04/04 04:53:10;;;;;;;9.80;8.30;;;3.40;99.90;;;;;;5012461;28;20118;-72
2022/04/04 04:55:36;;;;;;;11.17;7.93;;;;;;;;;;5011907;28;20080;-72
2022/04/04 04:58:02;;;;;;;17.53;8.37;;;3.40;99.90;;;;;;5012548;28;20825;-72
2022/04/04 05:00:28;;;;;;;10.73;8.40;;;3.60;99.90;;;;;;5012001;28;20018;-72
2022/04/04 05:05:40;;;;;;;11.37;8.37;;;3.60;99.90;;;;;;5031132;28;20132;-72
2022/04/04 05:08:07;;;;;;;10.57;8.27;;;3.30;99.90;;;;;;5032117;28;20471;-72
2022/04/04 05:10:32;;;;;;;10.07;7.90;;;3.80;99.90;;;;;;5031575;28;20034;-72
2022/04/04 05:12:58;;;;;;;9.03;7.97;;;3.80;99.90;;;;;;5031862;28;20030;-72
2022/04/04 05:15:24;;;;;;;13.10;8.93;;;;;;;;;;5027991;28;20036;-72
2022/04/04 05:17:52;;;;;;;16.73;8.90;;;4.00;99.90;;;;;;5016776;28;20095;-72
2022/04/04 05:20:18;;;;;;;13.67;8.53;;;3.80;99.90;;;;;;5031313;28;20030;-72
2022/04/04 05:22:43;;;;;;;13.60;9.20;;;3.70;99.90;;;;;;5030953;28;20032;-72
2022/04/04 05:25:09;;;;;;;14.73;9.63;;;4.00;99.90;;;;;;5030982;28;20055;-72
2022/04/04 05:27:36;;;;;;;13.80;9.53;;;4.10;99.90;;;;;;5031009;28;20040;-72
2022/04/04 05:30:02;;;;;;;12.40;9.87;;;4.10;99.90;;;;;;5031719;28;20057;-72
2022/04/04 05:32:29;;;;;;;16.63;8.47;;;3.80;99.90;;;;;;5025877;28;20057;-72
2022/04/04 05:34:55;;;;;;;15.17;9.23;;;;;;;;;;5023584;28;20060;-72
2022/04/04 05:37:20;;;;;;;18.77;8.93;;;4.20;99.90;;;;;;5031379;28;20026;-72
2022/04/04 05:39:46;;;;;;;12.60;8.73;;;;;;;;;;5030206;28;20033;-72
2022/04/04 05:42:12;;;;;;;13.73;9.43;;;4.30;99.90;;;;;;5030200;28;20022;-72
2022/04/04 05:44:37;;;;;;;14.67;8.37;;;;;;;;;;5029337;28;20045;-72
2022/04/04 05:47:04;;;;;;;11.73;8.60;;;4.30;99.90;;;;;;5029054;28;20409;-72
2022/04/04 05:49:30;;;;;;;9.03;7.27;;;;;;;;;;4993004;28;20049;-72
2022/04/04 05:51:55;;;;;;;12.50;9.13;;;4.40;99.90;;;;;;5031022;28;20038;-72
2022/04/04 05:54:21;;;;;;;13.50;8.63;;;;;;;;;;5031044;28;20036;-73
2022/04/04 05:56:47;;;;;;;10.90;8.33;;;4.60;99.90;;;;;;5030736;28;20036;-72
2022/04/04 05:59:13;;;;;;;14.37;8.00;;;4.60;99.90;;;;;;5031404;28;20025;-72
2022/04/04 06:01:39;;;;;;;9.77;7.50;;;4.70;99.90;;;;;;5030570;28;20017;-71
2022/04/04 06:04:05;;;;;;;13.27;9.67;;;4.60;99.90;;;;;;5012769;28;20041;-73
2022/04/04 06:06:31;;;;;;;10.27;7.87;;;4.50;99.90;;;;;;5030661;28;20032;-72
2022/04/04 06:08:57;;;;;;;13.67;9.27;;;;;;;;;;5030867;28;20060;-72
2022/04/04 06:11:23;;;;;;;14.10;8.70;;;;;;;;;;5013472;28;20528;-73
2022/04/04 06:13:48;;;;;;;11.17;9.03;;;4.70;99.90;;;;;;5030574;28;20033;-73
2022/04/04 06:16:14;;;;;;;14.33;9.13;;;4.70;99.90;;;;;;5030957;28;20482;-73
2022/04/04 06:18:40;;;;;;;12.77;9.20;;;;;;;;;;5012102;28;20022;-73
2022/04/04 06:21:06;;;;;;;11.83;8.77;;;4.90;99.90;;;;;;5030697;28;20171;-73
2022/04/04 06:23:33;;;;;;;12.13;8.77;;;5.20;99.90;;;;;;5030207;28;20045;-73
2022/04/04 06:26:04;;;;;;;12.03;8.80;;;5.00;99.90;;;;;;5030536;28;20123;-73
2022/04/04 06:28:31;;;;;;;12.00;8.07;;;5.10;99.90;;;;;;5030412;28;20490;-73
2022/04/04 06:30:57;;;;;;;12.03;8.47;;;;;;;;;;5030566;28;20053;-73
2022/04/04 06:33:23;;;;;;;12.53;8.90;;;;;;;;;;5014298;28;20080;-73
2022/04/04 06:35:50;;;;;;;11.33;8.23;;;5.40;99.90;;;;;;4992697;28;20046;-73
2022/04/04 06:38:18;;;;;;;9.93;7.67;;;5.40;99.90;;;;;;4993262;28;20032;-73
2022/04/04 06:40:44;;;;;;;15.73;8.60;;;5.60;99.90;;;;;;5010054;28;20494;-75
2022/04/04 06:43:09;;;;;;;9.53;8.40;;;5.60;99.90;;;;;;5010724;28;20141;-75
2022/04/04 06:45:35;;;;;;;11.33;7.57;;;;;;;;;;5010154;28;20101;-75
2022/04/04 06:48:02;;;;;;;14.80;7.90;;;;;;;;;;4992610;28;20149;-74
2022/04/04 06:50:30;;;;;;;13.10;8.43;;;;;;;;;;5010378;28;20030;-74
2022/04/04 06:52:56;;;;;;;10.83;7.87;;;5.70;99.90;;;;;;5010408;28;20018;-74
2022/04/04 06:55:21;;;;;;;9.80;8.20;;;5.90;99.90;;;;;;5026131;28;20083;-74
2022/04/04 06:57:47;;;;;;;9.63;7.43;;;6.00;99.90;;;;;;5012312;28;20121;-75
2022/04/04 07:00:15;;;;;;;11.40;7.53;;;5.80;99.90;;;;;;5030367;28;20024;-74
2022/04/04 07:02:41;;;;;;;16.97;7.60;;;;;;;;;;5024358;28;20098;-76
2022/04/04 07:05:08;;;;;;;13.00;7.73;;;6.00;99.90;;;;;;5011790;28;20126;-77
2022/04/04 07:07:34;;;;;;;14.07;7.10;;;;;;;;;;5011248;28;20025;-76
2022/04/04 07:10:00;;;;;;;9.10;7.40;;;;;;;;;;5011437;28;20064;-76
2022/04/04 07:12:27;;;;;;;9.33;7.37;;;;;;;;;;5029764;28;20116;-76
2022/04/04 07:14:54;;;;;;;8.87;7.80;;;;;;;;;;5029859;28;20791;-76
2022/04/04 07:17:20;;;;;;;9.07;6.90;;;;;;;;;;5029481;28;20033;-75
2022/04/04 07:19:45;;;;;;;8.13;7.33;;;6.40;99.90;;;;;;5029238;28;20037;-76
2022/04/04 07:22:11;;;;;;;11.27;7.63;;;6.40;99.90;;;;;;5029645;28;20021;-76
2022/04/04 07:24:37;;;;;;;12.10;7.57;;;6.40;99.90;;;;;;5028621;28;20042;-76
2022/04/04 07:27:03;;;;;;;7.63;6.73;;;6.40;99.90;;;;;;5011779;28;20032;-76
2022/04/04 07:29:29;;;;;;;10.53;6.80;;;6.50;99.90;;;;;;5029032;28;20030;-76
2022/04/04 07:31:55;;;;;;;10.83;7.43;;;;;;;;;;5029458;28;20030;-78
2022/04/04 07:34:21;;;;;;;12.07;7.57;;;6.40;99.90;;;;;;5029784;28;20510;-77
2022/04/04 07:36:47;;;;;;;13.43;7.20;;;;;;;;;;5028964;28;20079;-76
2022/04/04 07:39:13;;;;;;;11.07;7.23;;;6.70;99.90;;;;;;5029480;28;20717;-77
2022/04/04 07:41:39;;;;;;;8.87;7.20;;;6.60;99.90;;;;;;5028703;28;20064;-77
2022/04/04 07:44:05;;;;;;;8.90;6.97;;;6.80;99.90;;;;;;5029123;28;20128;-76
2022/04/04 07:46:34;;;;;;;10.33;7.87;;;;;;;;;;5029480;28;20022;-77
2022/04/04 07:49:00;;;;;;;9.20;7.43;;;6.90;99.90;;;;;;5029399;28;20075;-76
2022/04/04 07:51:27;;;;;;;11.20;8.13;;;7.10;99.90;;;;;;5011643;28;20021;-76
2022/04/04 07:53:53;;;;;;;12.03;8.90;;;;;;;;;;5028290;28;20053;-77
2022/04/04 07:56:20;;;;;;;11.10;9.67;;;6.60;99.90;;;;;;5026724;28;20072;-76
2022/04/04 07:58:45;;;;;;;11.17;8.60;;;6.70;99.90;;;;;;5026734;28;20018;-76
2022/04/04 08:01:11;;;;;;;13.47;7.70;;;;;;;;;;5029277;28;20033;-76
2022/04/04 08:03:37;;;;;;;17.00;9.50;;;7.00;99.90;;;;;;5028863;28;20033;-76
2022/04/04 08:06:03;;;;;;;12.93;9.20;;;6.50;99.90;;;;;;5029441;28;20120;-76
2022/04/04 08:08:29;;;;;;;13.87;9.57;;;6.50;99.90;;;;;;5029057;28;20034;-76
2022/04/04 08:10:57;;;;;;;13.07;10.27;;;;;;;;;;5011325;28;20053;-76
2022/04/04 08:13:23;;;;;;;16.70;10.43;;;;;;;;;;5028763;28;20033;-76
2022/04/04 08:15:48;;;;;;;12.77;9.60;;;6.50;99.90;;;;;;5029181;28;20032;-76
2022/04/04 08:18:14;;;;;;;14.33;10.60;;;6.30;99.90;;;;;;5029589;28;20394;-78
2022/04/04 08:20:40;;;;;;;17.63;10.27;;;6.40;99.90;;;;;;5032333;28;20068;-77
2022/04/04 08:23:06;;;;;;;14.30;9.67;;;;;;;;;;5033214;28;20029;-75
2022/04/04 08:25:31;;;;;;;15.07;10.27;;;6.40;99.90;;;;;;5016341;28;20030;-75
2022/04/04 08:27:57;;;;;;;13.43;10.50;;;6.50;99.90;;;;;;5013737;28;20029;-76
2022/04/04 08:30:23;;;;;;;15.80;10.87;;;;;;;;;;5013270;28;20030;-76
2022/04/04 08:32:48;;;;;;;13.60;10.63;;;6.50;99.90;;;;;;5016822;28;20371;-76
2022/04/04 08:35:15;;;;;;;11.03;9.37;;;6.40;99.90;;;;;;5020692;28;20057;-76
2022/04/04 08:37:43;;;;;;;14.90;10.20;;;6.50;99.90;;;;;;5032770;28;20017;-75
2022/04/04 08:40:11;;;;;;;14.13;10.17;;;6.50;99.90;;;;;;5031873;28;20474;-76
2022/04/04 08:42:37;;;;;;;19.43;11.67;;;6.50;99.90;;;;;;5033868;28;20445;-76
2022/04/04 08:45:05;;;;;;;15.97;10.70;;;6.60;99.90;;;;;;5040788;28;20038;-76
2022/04/04 08:47:32;;;;;;;11.70;10.43;;;6.70;99.90;;;;;;5025064;28;20104;-76
2022/04/04 08:49:59;;;;;;;14.60;10.60;;;6.70;99.90;;;;;;5014381;28;20052;-76
2022/04/04 08:52:26;;;;;;;12.73;11.20;;;6.90;99.90;;;;;;5031056;28;20418;-76
2022/04/04 08:54:52;;;;;;;16.33;11.17;;;6.70;99.90;;;;;;5032126;28;20490;-76
2022/04/04 08:57:18;;;;;;;16.20;10.57;;;;;;;;;;5013604;28;20029;-76
2022/04/04 08:59:44;;;;;;;11.77;10.57;;;6.80;99.90;;;;;;5025822;28;20029;-75
2022/04/04 09:02:11;;;;;;;16.27;11.87;;;6.70;99.90;;;;;;5028614;28;20044;-76
2022/04/04 09:04:37;;;;;;;13.07;10.57;;;;;;;;;;5031389;28;20045;-76
2022/04/04 09:07:10;;;;;;;14.93;10.30;;;6.70;99.90;;;;;;5031422;28;20036;-76
2022/04/04 09:09:49;;;;;;;19.80;11.77;;;6.90;99.90;;;;;;5031084;28;20040;-76
2022/04/04 09:12:17;;;;;;;14.47;11.73;;;6.50;99.90;;;;;;5031373;28;20053;-76
2022/04/04 09:14:52;;;;;;;14.13;11.83;;;6.50;99.90;;;;;;5027373;28;20391;-76
2022/04/04 09:17:21;;;;;;;12.80;11.47;;;6.70;99.90;;;;;;5020307;28;20415;-75
2022/04/04 09:19:46;;;;;;;17.60;12.60;;;6.30;99.90;;;;;;5030462;28;20245;-75
2022/04/04 09:22:14;;;;;;;20.20;12.27;;;6.40;99.90;;;;;;5028347;28;20022;-75
2022/04/04 09:24:44;;;;;;;19.23;12.67;;;6.50;99.90;;;;;;5012617;28;20037;-75
2022/04/04 09:27:17;;;;;;;15.77;13.30;;;6.50;99.90;;;;;;5031218;28;20026;-76
2022/04/04 09:29:43;;;;;;;17.63;13.40;;;6.30;99.90;;;;;;5029015;28;20317;-76
2022/04/04 09:32:12;;;;;;;22.50;13.50;;;6.30;99.90;;;;;;5011597;28;20109;-75
2022/04/04 09:34:54;;;;;;;16.07;12.23;;;6.40;99.90;;;;;;5010942;28;20490;-77
2022/04/04 09:37:21;;;;;;;18.70;13.83;;;6.10;99.90;;;;;;5012453;28;20033;-77
2022/04/04 09:40:12;;;;;;;18.63;14.97;;;6.20;99.90;;;;;;5030290;28;20017;-77
2022/04/04 09:42:38;;;;;;;16.80;13.43;;;6.20;99.90;;;;;;5022573;28;20124;-77
2022/04/04 09:45:06;;;;;;;17.17;12.93;;;6.20;99.90;;;;;;5030401;28;20180;-77
2022/04/04 09:47:52;;;;;;;17.50;12.57;;;6.00;99.90;;;;;;4996941;28;20053;-77
2022/04/04 09:50:38;;;;;;;23.40;15.00;;;6.10;99.90;;;;;;5031508;28;20025;-76
2022/04/04 09:53:24;;;;;;;14.70;12.87;;;6.10;99.90;;;;;;5009705;28;20038;-77
2022/04/04 09:55:55;;;;;;;20.00;15.17;;;6.00;99.90;;;;;;5010292;28;20133;-77
2022/04/04 09:58:22;;;;;;;16.60;12.80;;;6.30;99.90;;;;;;5011532;28;20029;-77
2022/04/04 10:00:49;;;;;;;16.27;14.53;;;6.20;99.90;;;;;;5011130;28;20054;-76
2022/04/04 10:03:16;;;;;;;15.33;13.70;;;6.00;99.90;;;;;;5012278;28;20368;-75
2022/04/04 10:06:08;;;;;;;17.20;13.33;;;6.00;99.90;;;;;;5025277;28;20874;-77
2022/04/04 10:08:36;;;;;;;17.20;12.80;;;6.20;99.90;;;;;;5022549;28;20571;-76
2022/04/04 10:11:03;;;;;;;18.43;11.80;;;6.20;99.90;;;;;;5030231;28;20541;-77
2022/04/04 10:13:29;;;;;;;14.90;12.40;;;;;;;;;;5030622;28;20060;-78
2022/04/04 10:15:56;;;;;;;15.60;12.37;;;;;;;;;;5030092;28;20033;-78
2022/04/04 10:18:21;;;;;;;14.53;11.37;;;6.30;99.90;;;;;;5012151;28;20387;-77
2022/04/04 10:20:53;;;;;;;14.80;11.87;;;;;;;;;;5018967;28;20026;-76
2022/04/04 10:23:20;;;;;;;15.23;12.47;;;6.30;99.90;;;;;;5028431;28;20037;-77
2022/04/04 10:25:49;;;;;;;16.10;11.80;;;6.30;99.90;;;;;;5021002;28;20498;-77
2022/04/04 10:28:34;;;;;;;15.43;11.10;;;5.90;99.90;;;;;;5030302;28;20034;-76
2022/04/04 10:31:12;;;;;;;18.90;12.93;;;6.20;99.90;;;;;;5014937;28;20355;-77
2022/04/04 10:33:38;;;;;;;13.37;11.47;;;6.30;99.90;;;;;;5026588;28;20028;-76
2022/04/04 10:36:20;;;;;;;15.60;10.77;;;6.20;99.90;;;;;;5028354;28;20132;-77
2022/04/04 10:38:45;;;;;;;14.57;11.03;;;6.30;99.90;;;;;;5021639;28;20029;-77
2022/04/04 10:41:13;;;;;;;15.10;13.00;;;6.40;99.90;;;;;;5029507;28;20552;-77
2022/04/04 10:43:44;;;;;;;18.07;12.80;;;6.70;99.90;;;;;;5029356;28;20100;-77
2022/04/04 10:46:14;;;;;;;15.17;10.57;;;6.30;99.90;;;;;;5011460;28;20024;-77
2022/04/04 10:48:42;;;;;;;14.57;10.73;;;6.10;99.90;;;;;;5029142;28;20032;-77
2022/04/04 10:51:17;;;;;;;14.97;11.40;;;6.30;99.90;;;;;;5029267;28;20032;-77
2022/04/04 10:53:54;;;;;;;12.73;10.43;;;6.30;99.90;;;;;;5029139;28;20030;-77
2022/04/04 10:56:21;;;;;;;14.37;10.63;;;6.30;99.90;;;;;;5029835;28;20032;-76
2022/04/04 10:58:49;;;;;;;14.43;9.90;;;6.50;99.90;;;;;;5030486;28;20478;-77
2022/04/04 11:01:16;;;;;;;11.10;10.00;;;6.30;99.90;;;;;;5012488;28;20862;-76
2022/04/04 11:03:57;;;;;;;12.60;9.80;;;6.50;99.90;;;;;;5029472;28;20112;-77
2022/04/04 11:09:32;;;;;;;10.55;9.55;;;7.50;99.90;;;;;;5031465;28;20041;-77
2022/04/04 11:12:00;;;;;;;11.93;10.40;;;6.30;99.90;;;;;;5029489;28;20026;-76
2022/04/04 11:14:38;;;;;;;10.23;9.13;;;6.50;99.90;;;;;;5021555;28;20026;-76
2022/04/04 11:17:11;;;;;;;11.50;9.27;;;6.30;99.90;;;;;;5010045;28;20056;-76
2022/04/04 11:19:47;;;;;;;9.93;8.93;;;6.50;99.90;;;;;;5020551;28;20075;-77
2022/04/04 11:22:34;;;;;;;12.20;8.50;;;6.40;99.90;;;;;;5011685;28;20486;-76
2022/04/04 11:25:27;;;;;;;8.60;7.43;;;6.50;99.90;;;;;;5020825;28;20053;-75
2022/04/04 11:27:52;;;;;;;11.17;8.00;;;6.40;99.90;;;;;;5018104;28;20034;-77
2022/04/04 11:30:20;;;;;;;11.13;8.60;;;6.40;99.90;;;;;;5011544;28;20387;-76
2022/04/04 11:33:11;;;;;;;11.97;8.97;;;6.70;99.90;;;;;;5028693;28;20356;-75
2022/04/04 11:35:50;;;;;;;12.57;10.47;;;6.60;99.90;;;;;;5013228;28;20169;-76
2022/04/04 11:38:19;;;;;;;12.53;9.50;;;6.60;99.90;;;;;;5024223;28;20022;-76
2022/04/04 11:40:52;;;;;;;12.23;9.47;;;6.70;99.90;;;;;;5029253;28;20025;-76
2022/04/04 11:43:19;;;;;;;9.95;8.73;;;6.60;99.90;;;;;;5009897;28;20030;-75
2022/04/04 11:46:10;;;;;;;12.57;9.87;;;6.70;99.90;;;;;;5009513;28;20041;-74
2022/04/04 11:48:54;;;;;;;13.33;9.80;;;6.60;99.90;;;;;;5008607;28;20030;-76
2022/04/04 11:51:25;;;;;;;13.60;10.93;;;6.70;99.90;;;;;;5009525;28;20029;-75
2022/04/04 11:54:03;;;;;;;13.23;11.17;;;6.80;99.90;;;;;;5001625;28;20551;-76
2022/04/04 11:56:29;;;;;;;16.43;11.97;;;;;;;;;;5033087;28;20496;-78
2022/04/04 11:58:56;;;;;;;16.97;12.77;;;;;;;;;;5032971;28;20167;-76
2022/04/04 12:01:33;;;;;;;16.60;13.30;;;6.60;99.90;;;;;;5015391;28;20021;-76
2022/04/04 12:04:00;;;;;;;19.33;14.37;;;6.60;99.90;;;;;;5033079;28;20037;-76
2022/04/04 12:06:28;;;;;;;14.80;13.20;;;;;;;;;;5031453;28;20466;-76
2022/04/04 12:08:57;;;;;;;20.10;13.97;;;;;;;;;;5032806;28;20385;-76
2022/04/04 12:11:28;;;;;;;15.60;12.53;;;6.60;99.90;;;;;;5032492;28;20479;-75
2022/04/04 12:13:57;;;;;;;18.07;13.67;;;6.40;99.90;;;;;;5026161;28;20045;-76
2022/04/04 12:16:23;;;;;;;15.27;13.07;;;;;;;;;;5032713;28;20029;-76
2022/04/04 12:19:00;;;;;;;15.73;13.10;;;6.70;99.90;;;;;;5032571;28;20565;-76
2022/04/04 12:21:26;;;;;;;13.00;11.27;;;6.80;99.90;;;;;;5031681;28;20443;-75
2022/04/04 12:26:36;;;;;;;12.80;10.30;;;6.80;99.90;;;;;;5031426;28;20043;-76
2022/04/04 12:29:09;;;;;;;13.50;11.43;;;6.70;99.90;;;;;;5032947;28;20033;-76
2022/04/04 12:31:35;;;;;;;11.80;10.60;;;6.70;99.90;;;;;;5031858;28;20060;-76
2022/04/04 12:34:03;;;;;;;11.47;10.30;;;6.80;99.90;;;;;;5032012;28;20142;-75
2022/04/04 12:36:30;;;;;;;13.63;11.00;;;6.80;99.90;;;;;;5031893;28;20085;-76
2022/04/04 12:38:59;;;;;;;14.90;13.20;;;6.30;99.90;;;;;;5031580;28;20036;-76
2022/04/04 12:41:25;;;;;;;13.00;11.77;;;;;;;;;;5014893;28;20032;-76
2022/04/04 12:44:00;;;;;;;15.90;12.07;;;6.70;99.90;;;;;;5012606;28;20042;-76
2022/04/04 12:46:27;;;;;;;13.30;11.97;;;6.80;99.90;;;;;;5011105;28;20029;-75
2022/04/04 12:48:54;;;;;;;14.50;13.10;;;7.00;99.90;;;;;;5031626;28;20116;-76
2022/04/04 12:51:31;;;;;;;13.97;12.57;;;6.70;99.90;;;;;;5014201;28;20029;-76
2022/04/04 12:54:00;;;;;;;14.80;13.20;;;6.60;99.90;;;;;;5030994;28;20031;-76
2022/04/04 12:56:27;;;;;;;16.60;13.63;;;;;;;;;;5031913;28;20529;-77
2022/04/04 12:59:07;;;;;;;18.13;13.60;;;6.70;99.90;;;;;;5030718;28;20129;-77
2022/04/04 13:01:33;;;;;;;15.83;14.27;;;6.80;99.90;;;;;;5013250;28;20025;-75
2022/04/04 13:03:59;;;;;;;15.67;14.03;;;6.60;99.90;;;;;;5030703;28;20080;-76
2022/04/04 13:06:33;;;;;;;15.90;14.30;;;6.60;99.90;;;;;;5031987;28;20061;-76
2022/04/04 13:09:03;;;;;;;15.05;13.63;;;6.60;99.90;;;;;;5030770;28;20373;-76
2022/04/04 13:11:30;;;;;;;13.83;12.43;;;6.70;99.90;;;;;;5024075;28;20044;-76
2022/04/04 13:14:05;;;;;;;14.80;13.30;;;6.70;99.90;;;;;;5027504;28;20057;-76
2022/04/04 13:16:31;;;;;;;14.80;13.27;;;;;;;;;;5030953;28;20049;-76
2022/04/04 13:18:57;;;;;;;17.40;13.20;;;6.70;99.90;;;;;;5031417;28;20143;-76
2022/04/04 13:21:23;;;;;;;16.10;14.40;;;;;;;;;;5028388;28;20048;-76
2022/04/04 13:23:49;;;;;;;15.10;13.50;;;;;;;;;;5030997;28;20041;-76
2022/04/04 13:26:14;;;;;;;15.17;13.67;;;6.80;99.90;;;;;;5027194;28;20037;-75